Time;durP1;ratioP1;P1;durP2;ratioP2;P2;SDS_P1;SDS_P2;PMS_P1;PMS_P2;Temp;Humidity;BMP_temperature;BMP_pressure;BME280_temperature;BME280_humidity;BME280_pressure;Samples;Min_cycle;Max_cycle;Signal;HPM_P1;HPM_P2
2022/11/01 00:00:50;;;;;;;43.45;28.83;;;;;;;;;;5024936;28;20554;-74
2022/11/01 00:03:16;;;;;;;44.17;29.33;;;;;;;;;;5016983;28;20032;-74
2022/11/01 00:05:42;;;;;;;48.28;30.75;;;;;;;;;;5018801;28;20014;-74
2022/11/01 00:08:08;;;;;;;46.80;31.40;;;;;;;;;;5027894;28;20071;-74
2022/11/01 00:10:34;;;;;;;55.40;34.35;;;;;;;;;;5019719;28;20534;-74
2022/11/01 00:12:59;;;;;;;52.17;35.35;;;;;;;;;;5016895;28;20026;-75
2022/11/01 00:15:25;;;;;;;56.30;39.58;;;;;;;;;;5016677;28;20080;-74
2022/11/01 00:17:51;;;;;;;62.40;40.83;;;;;;;;;;5015273;28;20327;-75
2022/11/01 00:20:17;;;;;;;66.65;42.42;;;;;;;;;;5020993;28;20431;-75
2022/11/01 00:22:43;;;;;;;68.55;45.15;;;;;;;;;;5016908;28;20104;-74
2022/11/01 00:25:09;;;;;;;74.60;45.45;;;;;;;;;;5015471;28;20030;-74
2022/11/01 00:27:35;;;;;;;63.30;42.72;;;;;;;;;;5027656;28;20446;-74
2022/11/01 00:30:01;;;;;;;70.80;46.38;;;;;;;;;;5029750;28;20029;-74
2022/11/01 00:32:27;;;;;;;75.05;49.05;;;;;;;;;;5016511;28;20472;-75
2022/11/01 00:34:53;;;;;;;80.35;48.92;;;;;;;;;;5013245;28;20030;-74
2022/11/01 00:37:19;;;;;;;91.10;53.88;;;;;;;;;;5025692;28;20065;-73
2022/11/01 00:39:45;;;;;;;83.88;53.50;;;;;;;;;;5025415;28;20182;-74
2022/11/01 00:42:11;;;;;;;93.40;57.63;;;;;;;;;;5013847;28;20029;-75
2022/11/01 00:44:37;;;;;;;91.30;54.40;;;;;;;;;;5022287;28;20021;-75
2022/11/01 00:47:03;;;;;;;97.80;58.92;;;;;;;;;;5029317;28;20013;-73
2022/11/01 00:49:29;;;;;;;99.13;59.85;;;;;;;;;;5035595;28;20387;-76
2022/11/01 00:51:55;;;;;;;105.50;62.22;;;;;;;;;;5028140;28;20037;-76
2022/11/01 00:54:21;;;;;;;93.00;55.72;;;;;;;;;;5028441;28;20479;-74
2022/11/01 00:56:47;;;;;;;106.50;61.47;;;;;;;;;;5036383;28;20379;-74
2022/11/01 00:59:13;;;;;;;100.57;58.75;;;;;;;;;;5015456;28;20030;-73
2022/11/01 01:01:39;;;;;;;89.10;56.17;;;;;;;;;;5028943;28;20022;-74
2022/11/01 01:04:05;;;;;;;110.20;63.05;;;;;;;;;;5024930;28;20022;-75
2022/11/01 01:06:31;;;;;;;106.95;64.22;;;;;;;;;;5024186;28;20025;-74
2022/11/01 01:09:01;;;;;;;114.90;67.85;;;;;;;;;;5020705;28;20029;-74
2022/11/01 01:11:27;;;;;;;117.20;66.75;;;;;;;;;;5030952;28;20026;-75
2022/11/01 01:13:53;;;;;;;133.75;71.28;;;;;;;;;;5013098;28;20105;-74
2022/11/01 01:16:19;;;;;;;106.72;66.35;;;;;;;;;;5022692;28;20096;-74
2022/11/01 01:18:45;;;;;;;117.80;68.50;;;;;;;;;;5013726;28;20548;-75
2022/11/01 01:21:12;;;;;;;122.88;68.30;;;;;;;;;;5021603;28;20030;-74
2022/11/01 01:23:39;;;;;;;110.57;65.47;;;;;;;;;;5015631;28;20025;-74
2022/11/01 01:26:06;;;;;;;121.70;67.20;;;;;;;;;;5005540;28;20017;-75
2022/11/01 01:28:32;;;;;;;126.70;72.28;;;;;;;;;;5013466;28;20499;-75
2022/11/01 01:30:58;;;;;;;129.75;72.22;;;;;;;;;;5022359;28;20056;-75
2022/11/01 01:33:24;;;;;;;125.93;72.75;;;;;;;;;;5015348;28;20022;-76
2022/11/01 01:35:50;;;;;;;121.50;70.35;;;;;;;;;;5018649;28;20033;-75
2022/11/01 01:38:17;;;;;;;117.22;68.28;;;;;;;;;;5007203;28;20176;-74
2022/11/01 01:40:43;;;;;;;113.68;66.78;;;;;;;;;;5017999;28;20029;-75
2022/11/01 01:43:11;;;;;;;121.60;71.72;;;;;;;;;;5014979;28;20034;-75
2022/11/01 01:45:40;;;;;;;119.63;69.95;;;;;;;;;;5016438;28;20021;-75
2022/11/01 01:48:12;;;;;;;109.82;62.13;;;;;;;;;;5025887;28;20017;-74
2022/11/01 01:50:50;;;;;;;127.20;73.93;;;;;;;;;;5000252;28;20056;-74
2022/11/01 01:53:27;;;;;;;126.35;66.45;;;;;;;;;;5015168;28;20080;-74
2022/11/01 01:55:58;;;;;;;126.60;70.97;;;;;;;;;;5018503;28;20391;-73
2022/11/01 01:58:27;;;;;;;129.50;72.53;;;;;;;;;;5024783;28;20032;-74
2022/11/01 02:00:53;;;;;;;137.85;71.50;;;;;;;;;;5026326;28;20043;-74
2022/11/01 02:03:20;;;;;;;111.63;66.00;;;;;;;;;;5019032;28;20050;-74
2022/11/01 02:05:49;;;;;;;129.23;71.53;;;;;;;;;;5023192;28;20053;-75
2022/11/01 02:08:25;;;;;;;126.72;67.63;;;;;;;;;;5024345;28;20033;-74
2022/11/01 02:10:51;;;;;;;114.70;65.63;;;;;;;;;;4999814;28;20455;-74
2022/11/01 02:13:17;;;;;;;94.93;58.25;;;;;;;;;;5015620;28;20030;-75
2022/11/01 02:16:06;;;;;;;106.78;61.33;;;;;;;;;;5017874;28;20107;-74
2022/11/01 02:18:45;;;;;;;99.45;58.25;;;;;;;;;;4979844;28;20065;-74
2022/11/01 02:21:29;;;;;;;117.50;64.25;;;;;;;;;;5017513;28;20033;-74
2022/11/01 02:24:01;;;;;;;90.65;55.75;;;;;;;;;;5012942;28;20104;-75
2022/11/01 02:26:54;;;;;;;114.63;62.60;;;;;;;;;;5022393;28;20018;-74
2022/11/01 02:29:35;;;;;;;109.20;60.60;;;;;;;;;;5027526;28;20032;-75
2022/11/01 02:32:16;;;;;;;116.30;61.65;;;;;;;;;;5015508;28;20022;-75
2022/11/01 02:34:48;;;;;;;118.95;65.38;;;;;;;;;;5011741;28;20056;-74
2022/11/01 02:37:26;;;;;;;115.22;58.58;;;;;;;;;;5022798;28;20109;-74
2022/11/01 02:39:55;;;;;;;116.53;62.72;;;;;;;;;;5022110;28;20021;-74
2022/11/01 02:42:22;;;;;;;112.90;61.40;;;;;;;;;;5014355;28;20097;-74
2022/11/01 02:44:51;;;;;;;110.65;60.10;;;;;;;;;;5011244;28;20391;-74
2022/11/01 02:47:17;;;;;;;113.88;62.20;;;;;;;;;;5005389;28;20025;-74
2022/11/01 02:49:43;;;;;;;97.78;55.90;;;;;;;;;;5023227;28;20022;-75
2022/11/01 02:52:11;;;;;;;105.15;56.65;;;;;;;;;;5014188;28;20025;-75
2022/11/01 02:54:38;;;;;;;107.82;56.83;;;;;;;;;;5011328;28;20022;-75
2022/11/01 02:57:17;;;;;;;94.88;54.30;;;;;;;;;;5021309;28;20488;-75
2022/11/01 02:59:44;;;;;;;110.28;55.97;;;;;;;;;;5023086;28;20033;-75
2022/11/01 03:02:14;;;;;;;108.85;55.17;;;;;;;;;;4996127;28;20531;-75
2022/11/01 03:04:40;;;;;;;105.13;56.05;;;;;;;;;;5011240;28;20030;-75
2022/11/01 03:07:09;;;;;;;95.93;53.03;;;;;;;;;;5005891;28;20092;-74
2022/11/01 03:09:35;;;;;;;85.60;48.03;;;;;;;;;;5014925;28;20574;-75
2022/11/01 03:12:06;;;;;;;91.72;52.85;;;;;;;;;;5014892;28;20050;-75
2022/11/01 03:14:35;;;;;;;88.22;48.97;;;;;;;;;;5011110;28;20088;-74
2022/11/01 03:17:31;;;;;;;77.40;44.70;;;;;;;;;;5021213;28;20033;-75
2022/11/01 03:19:57;;;;;;;72.28;41.83;;;;;;;;;;5000863;28;20032;-75
2022/11/01 03:22:29;;;;;;;72.63;42.42;;;;;;;;;;5022719;28;20112;-75
2022/11/01 03:28:00;;;;;;;72.63;40.47;;;;;;;;;;5029856;28;20129;-75
2022/11/01 03:30:29;;;;;;;67.78;38.67;;;;;;;;;;5028987;28;20049;-75
2022/11/01 03:32:56;;;;;;;59.38;36.08;;;;;;;;;;5022446;28;20032;-74
2022/11/01 03:35:24;;;;;;;59.47;34.50;;;;;;;;;;5028930;28;20029;-75
2022/11/01 03:37:52;;;;;;;61.90;34.60;;;;;;;;;;5015910;28;20372;-75
2022/11/01 03:40:18;;;;;;;52.45;32.85;;;;;;;;;;5021806;28;20116;-74
2022/11/01 03:42:46;;;;;;;46.50;31.65;;;;;;;;;;5017458;28;20022;-74
2022/11/01 03:45:14;;;;;;;49.10;31.00;;;;;;;;;;5016168;28;20018;-74
2022/11/01 03:47:40;;;;;;;47.42;30.67;;;;;;;;;;5024555;28;20029;-75
2022/11/01 03:50:12;;;;;;;46.95;29.92;;;;;;;;;;5031489;28;20022;-75
2022/11/01 03:52:38;;;;;;;43.13;30.23;;;;;;;;;;5017041;28;20034;-75
2022/11/01 03:55:16;;;;;;;41.25;27.95;;;;;;;;;;5014633;28;20033;-76
2022/11/01 03:57:43;;;;;;;46.92;27.58;;;;;;;;;;5028382;28;20407;-74
2022/11/01 04:00:09;;;;;;;43.10;28.25;;;;;;;;;;5029785;28;20037;-74
2022/11/01 04:02:35;;;;;;;41.70;27.20;;;;;;;;;;5017250;28;20080;-74
2022/11/01 04:05:01;;;;;;;40.63;26.67;;;;;;;;;;5014820;28;20427;-74
2022/11/01 04:07:27;;;;;;;41.00;26.33;;;;;;;;;;5027994;28;20080;-74
2022/11/01 04:09:53;;;;;;;40.03;25.45;;;;;;;;;;5025108;28;20472;-74
2022/11/01 04:12:19;;;;;;;39.30;25.90;;;;;;;;;;5017182;28;20026;-74
2022/11/01 04:20:32;;;;;;;38.85;25.58;;;;;;;;;;5022960;28;20033;-73
2022/11/01 04:22:59;;;;;;;38.35;24.55;;;;;;;;;;5016579;28;20022;-73
2022/11/01 04:25:25;;;;;;;38.33;23.80;;;;;;;;;;5017478;28;20026;-73
2022/11/01 04:27:51;;;;;;;38.20;24.90;;;;;;;;;;5027661;28;20021;-73
2022/11/01 04:30:17;;;;;;;33.45;23.20;;;;;;;;;;5028068;28;20026;-73
2022/11/01 04:32:43;;;;;;;37.15;24.38;;;;;;;;;;4998964;28;20068;-74
2022/11/01 04:35:11;;;;;;;36.22;21.98;;;;;;;;;;5014381;28;20022;-74
2022/11/01 04:37:37;;;;;;;37.50;23.35;;;;;;;;;;5027480;28;20013;-74
2022/11/01 04:40:03;;;;;;;34.50;23.27;;;;;;;;;;5025282;28;20091;-73
2022/11/01 04:42:29;;;;;;;32.15;21.90;;;;;;;;;;5012248;28;20081;-74
2022/11/01 04:44:55;;;;;;;35.22;23.80;;;;;;;;;;5013095;28;20026;-75
2022/11/01 04:47:21;;;;;;;31.50;21.88;;;;;;;;;;5027590;28;20484;-75
2022/11/01 04:49:47;;;;;;;35.00;22.20;;;;;;;;;;5029651;28;20029;-76
2022/11/01 04:52:13;;;;;;;35.67;22.38;;;;;;;;;;5020400;28;20025;-76
2022/11/01 04:54:39;;;;;;;34.42;21.35;;;;;;;;;;5017902;28;20021;-76
2022/11/01 04:57:05;;;;;;;34.05;21.92;;;;;;;;;;5026949;28;20045;-75
2022/11/01 04:59:31;;;;;;;28.65;19.98;;;;;;;;;;5023739;28;20026;-75
2022/11/01 05:01:57;;;;;;;33.80;21.15;;;;;;;;;;5017582;28;20018;-75
2022/11/01 05:04:23;;;;;;;32.70;21.05;;;;;;;;;;5013284;28;20022;-76
2022/11/01 05:06:49;;;;;;;34.53;20.65;;;;;;;;;;5024635;28;20504;-74
2022/11/01 05:09:14;;;;;;;29.23;20.42;;;;;;;;;;5021846;28;20054;-75
2022/11/01 05:11:40;;;;;;;38.45;22.90;;;;;;;;;;5019904;28;20017;-74
2022/11/01 05:14:06;;;;;;;29.00;19.23;;;;;;;;;;5013229;28;20610;-74
2022/11/01 05:16:32;;;;;;;35.20;21.75;;;;;;;;;;5023901;28;20476;-74
2022/11/01 05:18:58;;;;;;;30.60;20.33;;;;;;;;;;5020310;28;20073;-74
2022/11/01 05:21:24;;;;;;;34.88;20.92;;;;;;;;;;5020816;28;20026;-74
2022/11/01 05:23:50;;;;;;;33.33;22.27;;;;;;;;;;5014303;28;20401;-75
2022/11/01 05:26:16;;;;;;;33.40;21.17;;;;;;;;;;5022448;28;20018;-75
2022/11/01 05:28:42;;;;;;;32.08;20.45;;;;;;;;;;5025070;28;20033;-75
2022/11/01 05:31:08;;;;;;;30.23;20.15;;;;;;;;;;5021534;28;20033;-74
2022/11/01 05:33:34;;;;;;;31.50;20.27;;;;;;;;;;5015220;28;20502;-75
2022/11/01 05:36:01;;;;;;;33.25;20.10;;;;;;;;;;5020800;28;20022;-76
2022/11/01 05:38:26;;;;;;;41.15;23.05;;;;;;;;;;5014057;28;20932;-76
2022/11/01 05:40:53;;;;;;;39.92;19.67;;;;;;;;;;5023111;28;20022;-74
2022/11/01 05:43:19;;;;;;;37.78;21.75;;;;;;;;;;5020183;28;20152;-75
2022/11/01 05:45:45;;;;;;;41.00;23.63;;;;;;;;;;5008069;28;20041;-76
2022/11/01 05:48:10;;;;;;;34.67;21.83;;;;;;;;;;5030998;28;20033;-75
2022/11/01 05:50:36;;;;;;;34.35;22.27;;;;;;;;;;5024899;28;20427;-76
2022/11/01 05:53:06;;;;;;;37.92;21.25;;;;;;;;;;5018716;28;20058;-76
2022/11/01 05:55:32;;;;;;;36.40;21.55;;;;;;;;;;5016533;28;20033;-75
2022/11/01 05:57:59;;;;;;;40.75;23.50;;;;;;;;;;5012938;28;20045;-75
2022/11/01 06:00:25;;;;;;;40.33;23.15;;;;;;;;;;5024976;28;20036;-76
2022/11/01 06:02:51;;;;;;;39.50;22.75;;;;;;;;;;5014688;28;20018;-75
2022/11/01 06:05:17;;;;;;;38.80;23.35;;;;;;;;;;5013166;28;20096;-74
2022/11/01 06:07:43;;;;;;;39.05;23.63;;;;;;;;;;5025523;28;20024;-74
2022/11/01 06:10:09;;;;;;;39.42;22.90;;;;;;;;;;5020353;28;20018;-74
2022/11/01 06:12:35;;;;;;;37.13;23.30;;;;;;;;;;5014720;28;20026;-74
2022/11/01 06:15:01;;;;;;;34.08;21.30;;;;;;;;;;4995723;28;20068;-76
2022/11/01 06:17:27;;;;;;;34.53;21.98;;;;;;;;;;5025169;28;20025;-76
2022/11/01 06:19:53;;;;;;;33.38;21.02;;;;;;;;;;5022297;28;20033;-74
2022/11/01 06:22:19;;;;;;;36.72;22.48;;;;;;;;;;4996831;28;20022;-74
2022/11/01 06:24:45;;;;;;;33.75;21.40;;;;;;;;;;5010380;28;20373;-76
2022/11/01 06:27:11;;;;;;;39.28;21.05;;;;;;;;;;5025594;28;20022;-74
2022/11/01 06:29:37;;;;;;;33.10;20.48;;;;;;;;;;5029812;28;20017;-74
2022/11/01 06:32:03;;;;;;;31.75;19.70;;;;;;;;;;4997884;28;20029;-74
2022/11/01 06:34:29;;;;;;;33.33;20.58;;;;;;;;;;5011709;28;20032;-75
2022/11/01 06:36:56;;;;;;;32.83;20.85;;;;;;;;;;5022078;28;20068;-75
2022/11/01 06:39:21;;;;;;;33.35;20.50;;;;;;;;;;5021164;28;20454;-74
2022/11/01 06:41:48;;;;;;;31.25;20.10;;;;;;;;;;5010158;28;20038;-75
2022/11/01 06:44:14;;;;;;;35.63;21.33;;;;;;;;;;5021654;28;20069;-76
2022/11/01 06:46:40;;;;;;;37.85;23.05;;;;;;;;;;5029798;28;20395;-75
2022/11/01 06:49:06;;;;;;;34.53;21.48;;;;;;;;;;5030645;28;20032;-76
2022/11/01 06:51:32;;;;;;;25.58;18.17;;;;;;;;;;5013345;28;20458;-72
2022/11/01 06:53:58;;;;;;;28.13;18.52;;;;;;;;;;5023670;28;20396;-75
2022/11/01 06:56:24;;;;;;;27.00;18.88;;;;;;;;;;5005781;28;20029;-76
2022/11/01 06:58:50;;;;;;;27.30;17.00;;;;;;;;;;5022526;28;20045;-77
2022/11/01 07:01:17;;;;;;;27.98;18.02;;;;;;;;;;5020284;28;20030;-77
2022/11/01 07:03:44;;;;;;;28.80;17.70;;;;;;;;;;5012281;28;20022;-76
2022/11/01 07:06:10;;;;;;;24.42;17.40;;;;;;;;;;5018157;28;20022;-77
2022/11/01 07:08:36;;;;;;;28.13;18.10;;;;;;;;;;5017461;28;20046;-76
2022/11/01 07:11:02;;;;;;;24.88;17.50;;;;;;;;;;5020549;28;20033;-76
2022/11/01 07:13:32;;;;;;;24.42;17.20;;;;;;;;;;5025490;28;20098;-75
2022/11/01 07:16:00;;;;;;;23.15;16.30;;;;;;;;;;5028490;28;20023;-76
2022/11/01 07:18:28;;;;;;;22.77;16.23;;;;;;;;;;5013727;28;20456;-78
2022/11/01 07:20:54;;;;;;;24.35;16.88;;;;;;;;;;4998516;28;20029;-75
2022/11/01 07:23:20;;;;;;;23.00;16.73;;;;;;;;;;5014810;28;20021;-76
2022/11/01 07:25:52;;;;;;;31.98;18.02;;;;;;;;;;5023257;28;20432;-77
2022/11/01 07:28:18;;;;;;;23.13;17.05;;;;;;;;;;5007780;28;20124;-77
2022/11/01 07:30:48;;;;;;;21.52;15.20;;;;;;;;;;5029340;28;20496;-75
2022/11/01 07:33:27;;;;;;;24.25;16.88;;;;;;;;;;5041892;28;20027;-75
2022/11/01 07:35:55;;;;;;;21.02;14.73;;;;;;;;;;5025254;28;20057;-76
2022/11/01 07:38:21;;;;;;;22.88;15.57;;;;;;;;;;5022916;28;20029;-74
2022/11/01 07:40:48;;;;;;;24.65;16.48;;;;;;;;;;5028710;28;20032;-73
2022/11/01 07:43:16;;;;;;;19.75;15.02;;;;;;;;;;5028833;28;20029;-76
2022/11/01 07:45:42;;;;;;;21.05;14.52;;;;;;;;;;5029270;28;20426;-75
2022/11/01 07:48:12;;;;;;;27.48;16.70;;;;;;;;;;5027072;28;20029;-75
2022/11/01 07:50:42;;;;;;;21.50;14.93;;;;;;;;;;5009888;28;20021;-74
2022/11/01 07:53:09;;;;;;;22.45;15.65;;;;;;;;;;5010734;28;20026;-76
2022/11/01 07:55:36;;;;;;;21.23;14.50;;;;;;;;;;5011026;28;20022;-74
2022/11/01 07:58:02;;;;;;;19.48;14.82;;;;;;;;;;5010449;28;20014;-76
2022/11/01 08:00:31;;;;;;;20.27;14.90;;;;;;;;;;5022731;28;20101;-75
2022/11/01 08:03:09;;;;;;;24.33;13.80;;;;;;;;;;5010726;28;20026;-73
2022/11/01 08:05:35;;;;;;;18.15;13.93;;;;;;;;;;5010331;28;20022;-74
2022/11/01 08:08:02;;;;;;;18.73;14.10;;;;;;;;;;5009708;28;20030;-75
2022/11/01 08:10:29;;;;;;;19.35;13.52;;;;;;;;;;5010464;28;20041;-75
2022/11/01 08:13:02;;;;;;;19.60;13.45;;;;;;;;;;5010518;28;20025;-74
2022/11/01 08:15:28;;;;;;;18.73;13.50;;;;;;;;;;5010545;28;20053;-74
2022/11/01 08:17:55;;;;;;;17.40;12.70;;;;;;;;;;5009931;28;20097;-74
2022/11/01 08:20:21;;;;;;;17.73;13.30;;;;;;;;;;5012341;28;20014;-74
2022/11/01 08:22:47;;;;;;;17.90;13.60;;;;;;;;;;5014244;28;20083;-74
2022/11/01 08:25:13;;;;;;;19.55;14.10;;;;;;;;;;5014065;28;20434;-74
2022/11/01 08:27:39;;;;;;;17.92;13.18;;;;;;;;;;5013505;28;20033;-74
2022/11/01 08:30:06;;;;;;;15.20;12.30;;;;;;;;;;5026270;28;20025;-74
2022/11/01 08:32:32;;;;;;;16.70;12.43;;;;;;;;;;5014093;28;20485;-74
2022/11/01 08:34:57;;;;;;;15.77;12.05;;;;;;;;;;5013893;28;20037;-75
2022/11/01 08:37:23;;;;;;;17.83;12.68;;;;;;;;;;5003418;28;20454;-75
2022/11/01 08:39:49;;;;;;;22.17;13.65;;;;;;;;;;5019710;28;20133;-74
2022/11/01 08:42:15;;;;;;;18.38;13.18;;;;;;;;;;5002722;28;20080;-75
2022/11/01 08:44:41;;;;;;;20.33;12.57;;;;;;;;;;5020809;28;20030;-75
2022/11/01 08:47:08;;;;;;;17.40;13.77;;;;;;;;;;5011408;28;20030;-74
2022/11/01 08:49:34;;;;;;;17.83;11.98;;;;;;;;;;5014040;28;20030;-75
2022/11/01 08:52:00;;;;;;;17.75;13.25;;;;;;;;;;5009678;28;20029;-74
2022/11/01 08:54:26;;;;;;;20.50;12.90;;;;;;;;;;5025017;28;20029;-75
2022/11/01 08:56:52;;;;;;;18.17;13.25;;;;;;;;;;5033466;28;20022;-74
2022/11/01 08:59:18;;;;;;;20.02;13.50;;;;;;;;;;5014947;28;20052;-75
2022/11/01 09:01:44;;;;;;;15.73;11.48;;;;;;;;;;5032838;28;20055;-74
2022/11/01 09:04:11;;;;;;;17.38;12.55;;;;;;;;;;5012507;28;20101;-74
2022/11/01 09:06:37;;;;;;;17.52;12.15;;;;;;;;;;5028488;28;20033;-75
2022/11/01 09:09:03;;;;;;;17.30;11.60;;;;;;;;;;5025072;28;20105;-73
2022/11/01 09:11:29;;;;;;;18.35;12.68;;;;;;;;;;5013454;28;20041;-74
2022/11/01 09:13:56;;;;;;;19.27;12.73;;;;;;;;;;5002657;28;20037;-75
2022/11/01 09:16:23;;;;;;;17.58;11.75;;;;;;;;;;5020033;28;20044;-77
2022/11/01 09:18:49;;;;;;;16.02;12.30;;;;;;;;;;5008399;28;20344;-73
2022/11/01 09:21:16;;;;;;;15.68;11.50;;;;;;;;;;5025157;28;20428;-75
2022/11/01 09:23:42;;;;;;;18.45;11.45;;;;;;;;;;5032953;28;20045;-74
2022/11/01 09:26:09;;;;;;;14.27;11.13;;;;;;;;;;5033149;28;20021;-74
2022/11/01 09:28:35;;;;;;;18.25;11.73;;;;;;;;;;5032462;28;20044;-74
2022/11/01 09:31:02;;;;;;;13.82;10.85;;;;;;;;;;5022292;28;20101;-75
2022/11/01 09:33:28;;;;;;;16.02;11.70;;;;;;;;;;5013287;28;20072;-73
2022/11/01 09:35:54;;;;;;;15.43;10.95;;;;;;;;;;5022075;28;20025;-75
2022/11/01 09:38:20;;;;;;;17.02;10.27;;;;;;;;;;5032082;28;20488;-74
2022/11/01 09:40:49;;;;;;;13.73;10.32;;;;;;;;;;5032931;28;20040;-75
2022/11/01 09:43:19;;;;;;;17.17;11.60;;;;;;;;;;5032296;28;20456;-77
2022/11/01 09:45:45;;;;;;;18.98;11.63;;;;;;;;;;5032643;28;20087;-74
2022/11/01 09:48:14;;;;;;;17.08;11.43;;;;;;;;;;5009569;28;20098;-74
2022/11/01 09:50:42;;;;;;;18.90;11.82;;;;;;;;;;5032132;28;20416;-74
2022/11/01 09:53:12;;;;;;;21.38;12.18;;;;;;;;;;5032155;28;20072;-73
2022/11/01 09:55:38;;;;;;;17.88;12.98;;;;;;;;;;5032392;28;20458;-74
2022/11/01 09:58:08;;;;;;;19.52;12.07;;;;;;;;;;5031152;28;20105;-73
2022/11/01 10:00:39;;;;;;;16.25;12.30;;;;;;;;;;5023495;28;20037;-75
2022/11/01 10:03:14;;;;;;;16.50;11.40;;;;;;;;;;4993911;28;20030;-73
2022/11/01 10:05:47;;;;;;;19.00;13.77;;;;;;;;;;5021781;28;20109;-74
2022/11/01 10:08:16;;;;;;;18.73;11.90;;;;;;;;;;5010835;28;20026;-75
2022/11/01 10:10:42;;;;;;;17.98;11.80;;;;;;;;;;5012247;28;20072;-75
2022/11/01 10:13:07;;;;;;;17.67;12.82;;;;;;;;;;5000445;28;20014;-74
2022/11/01 10:15:49;;;;;;;17.73;12.95;;;;;;;;;;5031274;28;20109;-75
2022/11/01 10:18:27;;;;;;;20.88;13.90;;;;;;;;;;5029261;28;20063;-74
2022/11/01 10:20:57;;;;;;;17.83;12.82;;;;;;;;;;5031049;28;20140;-74
2022/11/01 10:23:33;;;;;;;17.77;13.43;;;;;;;;;;5028712;28;20034;-75
2022/11/01 10:25:59;;;;;;;18.92;12.57;;;;;;;;;;5013676;28;20070;-74
2022/11/01 10:28:28;;;;;;;16.45;12.90;;;;;;;;;;5012099;28;20068;-74
2022/11/01 10:30:56;;;;;;;16.40;12.25;;;;;;;;;;5022767;28;20033;-74
2022/11/01 10:33:32;;;;;;;18.85;12.18;;;;;;;;;;5007583;28;20034;-75
2022/11/01 10:36:09;;;;;;;21.15;12.35;;;;;;;;;;4994239;28;20030;-74
2022/11/01 10:38:37;;;;;;;17.63;12.55;;;;;;;;;;5009640;28;20029;-74
2022/11/01 10:41:08;;;;;;;17.95;12.18;;;;;;;;;;5022203;28;20504;-74
2022/11/01 10:43:36;;;;;;;17.10;12.50;;;;;;;;;;5031086;28;20032;-75
2022/11/01 10:46:06;;;;;;;18.35;12.63;;;;;;;;;;5031318;28;20155;-73
2022/11/01 10:48:31;;;;;;;14.32;11.30;;;;;;;;;;5027544;28;20025;-75
2022/11/01 10:50:59;;;;;;;18.40;13.05;;;;;;;;;;5011643;28;20026;-75
2022/11/01 10:53:27;;;;;;;17.10;12.45;;;;;;;;;;5011687;28;20050;-74
2022/11/01 10:55:58;;;;;;;20.95;12.35;;;;;;;;;;5002413;28;20030;-74
2022/11/01 10:58:27;;;;;;;15.15;11.38;;;;;;;;;;5014310;28;20026;-73
2022/11/01 11:00:53;;;;;;;14.20;10.55;;;;;;;;;;5011154;28;20037;-76
2022/11/01 11:03:22;;;;;;;16.02;10.00;;;;;;;;;;5011398;28;20034;-75
2022/11/01 11:05:58;;;;;;;21.30;10.32;;;;;;;;;;5012013;28;20022;-71
2022/11/01 11:08:25;;;;;;;14.85;10.23;;;;;;;;;;5011226;28;20120;-71
2022/11/01 11:10:51;;;;;;;13.18;9.80;;;;;;;;;;5020145;28;20075;-75
2022/11/01 11:13:22;;;;;;;12.30;7.40;;;;;;;;;;5013277;28;20112;-76
2022/11/01 11:15:51;;;;;;;18.90;9.65;;;;;;;;;;5013471;28;20030;-75
2022/11/01 11:18:21;;;;;;;19.25;11.60;;;;;;;;;;5013104;28;20052;-75
2022/11/01 11:20:50;;;;;;;25.98;12.38;;;;;;;;;;5031457;28;20030;-74
2022/11/01 11:23:18;;;;;;;25.50;13.05;;;;;;;;;;5017209;28;20044;-75
2022/11/01 11:25:44;;;;;;;20.40;12.95;;;;;;;;;;5023355;28;20018;-73
2022/11/01 11:28:21;;;;;;;20.23;13.10;;;;;;;;;;5025140;28;20374;-76
2022/11/01 11:30:47;;;;;;;17.27;12.02;;;;;;;;;;5020489;28;20126;-75
2022/11/01 11:33:16;;;;;;;19.40;12.10;;;;;;;;;;5021352;28;20029;-75
2022/11/01 11:35:44;;;;;;;16.92;12.45;;;;;;;;;;5010870;28;20022;-77
2022/11/01 11:38:13;;;;;;;23.20;13.73;;;;;;;;;;5010141;28;20503;-76
2022/11/01 11:40:39;;;;;;;20.30;13.27;;;;;;;;;;5011036;28;20030;-75
2022/11/01 11:43:35;;;;;;;17.45;12.25;;;;;;;;;;5010962;28;20029;-75
2022/11/01 11:46:07;;;;;;;24.70;12.93;;;;;;;;;;5010808;28;20022;-76
2022/11/01 11:48:45;;;;;;;21.63;12.85;;;;;;;;;;5013719;28;20065;-78
2022/11/01 11:51:11;;;;;;;17.42;11.77;;;;;;;;;;5030676;28;20559;-72
2022/11/01 11:53:37;;;;;;;19.70;13.07;;;;;;;;;;5026462;28;20061;-76
2022/11/01 11:56:08;;;;;;;21.05;13.98;;;;;;;;;;5014345;28;20049;-78
2022/11/01 11:58:39;;;;;;;17.90;12.85;;;;;;;;;;5012381;28;20472;-75
2022/11/01 12:01:07;;;;;;;19.38;11.93;;;;;;;;;;5025161;28;20165;-74
2022/11/01 12:03:42;;;;;;;19.20;11.68;;;;;;;;;;5018095;28;20022;-77
2022/11/01 12:06:08;;;;;;;23.52;14.10;;;;;;;;;;5021562;28;20053;-76
2022/11/01 12:08:44;;;;;;;23.85;13.10;;;;;;;;;;5035881;28;20018;-75
2022/11/01 12:11:10;;;;;;;18.83;13.07;;;;;;;;;;5035835;28;20492;-75
2022/11/01 12:13:40;;;;;;;19.83;12.38;;;;;;;;;;5018252;28;20602;-76
2022/11/01 12:16:06;;;;;;;21.08;12.65;;;;;;;;;;5014830;28;20061;-75
2022/11/01 12:18:32;;;;;;;19.27;12.00;;;;;;;;;;5026772;28;20018;-75
2022/11/01 12:20:58;;;;;;;16.90;11.55;;;;;;;;;;5024645;28;20503;-74
2022/11/01 12:23:32;;;;;;;17.08;12.18;;;;;;;;;;5014580;28;20025;-74
2022/11/01 12:26:00;;;;;;;15.90;10.75;;;;;;;;;;5014646;28;20029;-74
2022/11/01 12:28:26;;;;;;;15.90;9.13;;;;;;;;;;5011357;28;20021;-74
2022/11/01 12:30:56;;;;;;;15.52;7.85;;;;;;;;;;5025198;28;20040;-74
2022/11/01 12:33:24;;;;;;;18.67;8.45;;;;;;;;;;5016252;28;20116;-75
2022/11/01 12:35:53;;;;;;;10.15;5.50;;;;;;;;;;5019319;28;20025;-75
2022/11/01 12:38:41;;;;;;;11.50;5.95;;;;;;;;;;5019816;28;20085;-75
2022/11/01 12:41:26;;;;;;;12.50;6.85;;;;;;;;;;5036560;28;20359;-75
2022/11/01 12:43:52;;;;;;;10.30;4.05;;;;;;;;;;5040455;28;20027;-74
2022/11/01 12:46:36;;;;;;;9.90;3.42;;;;;;;;;;5028879;28;20100;-74
2022/11/01 12:49:26;;;;;;;8.20;2.90;;;;;;;;;;5015309;28;20025;-74
2022/11/01 12:51:53;;;;;;;12.20;4.72;;;;;;;;;;4979613;28;20034;-74
2022/11/01 12:54:31;;;;;;;5.45;3.25;;;;;;;;;;5023349;28;20022;-73
2022/11/01 12:56:57;;;;;;;8.93;3.83;;;;;;;;;;5032613;28;20025;-73
2022/11/01 12:59:29;;;;;;;6.65;3.35;;;;;;;;;;5032220;28;20105;-74
2022/11/01 13:01:59;;;;;;;18.70;8.73;;;;;;;;;;5015381;28;20506;-75
2022/11/01 13:04:34;;;;;;;17.00;11.13;;;;;;;;;;5005845;28;20033;-75
2022/11/01 13:07:18;;;;;;;18.30;12.30;;;;;;;;;;5023617;28;20025;-74
2022/11/01 13:10:04;;;;;;;16.38;12.20;;;;;;;;;;5019763;28;20479;-75
2022/11/01 13:12:36;;;;;;;19.60;11.88;;;;;;;;;;5012768;28;20025;-75
2022/11/01 13:15:21;;;;;;;20.08;12.68;;;;;;;;;;5008482;28;20036;-76
2022/11/01 13:17:47;;;;;;;18.45;12.43;;;;;;;;;;5019406;28;20040;-76
2022/11/01 13:20:31;;;;;;;18.98;12.20;;;;;;;;;;4998276;28;20026;-75
2022/11/01 13:23:21;;;;;;;16.65;9.55;;;;;;;;;;5025526;28;20129;-72
2022/11/01 13:25:51;;;;;;;16.23;10.73;;;;;;;;;;5013488;28;20022;-75
2022/11/01 13:28:20;;;;;;;21.92;12.63;;;;;;;;;;5014105;28;20368;-75
2022/11/01 13:31:04;;;;;;;19.75;12.13;;;;;;;;;;5035665;28;20030;-75
2022/11/01 13:33:40;;;;;;;18.42;12.30;;;;;;;;;;5041534;28;20118;-76
2022/11/01 13:36:19;;;;;;;16.70;10.55;;;;;;;;;;5022603;28;20085;-77
2022/11/01 13:38:55;;;;;;;18.55;12.45;;;;;;;;;;5021617;28;20014;-75
2022/11/01 13:41:36;;;;;;;27.95;15.00;;;;;;;;;;5012340;28;20030;-78
2022/11/01 13:44:09;;;;;;;22.80;12.82;;;;;;;;;;5014446;28;20014;-76
2022/11/01 13:46:42;;;;;;;22.90;13.57;;;;;;;;;;5013415;28;20546;-75
2022/11/01 13:49:08;;;;;;;24.20;13.88;;;;;;;;;;5012411;28;20068;-75
2022/11/01 13:51:34;;;;;;;22.42;13.80;;;;;;;;;;5026776;28;20026;-76
2022/11/01 13:54:00;;;;;;;25.20;14.40;;;;;;;;;;5031703;28;20123;-75
2022/11/01 13:56:32;;;;;;;23.58;14.48;;;;;;;;;;5017666;28;20038;-75
2022/11/01 13:58:59;;;;;;;21.23;14.45;;;;;;;;;;5017537;28;20080;-73
2022/11/01 14:01:28;;;;;;;23.85;14.18;;;;;;;;;;5000619;28;20040;-76
2022/11/01 14:04:06;;;;;;;22.55;15.18;;;;;;;;;;5018081;28;20021;-75
2022/11/01 14:06:36;;;;;;;19.30;12.85;;;;;;;;;;5029615;28;20488;-76
2022/11/01 14:09:21;;;;;;;25.88;13.65;;;;;;;;;;5029754;28;20025;-75
2022/11/01 14:11:48;;;;;;;23.10;12.60;;;;;;;;;;5029668;28;20033;-75
2022/11/01 14:14:44;;;;;;;16.00;11.48;;;;;;;;;;5030457;28;20025;-77
2022/11/01 14:17:19;;;;;;;11.88;5.05;;;;;;;;;;4997205;28;20026;-76
2022/11/01 14:19:49;;;;;;;9.63;4.55;;;;;;;;;;5006776;28;20506;-76
2022/11/01 14:22:27;;;;;;;10.52;4.30;;;;;;;;;;5011988;28;20076;-76
2022/11/01 14:24:53;;;;;;;8.48;3.72;;;;;;;;;;5012036;28;20025;-75
2022/11/01 14:27:33;;;;;;;5.90;3.13;;;;;;;;;;5000681;28;20017;-76
2022/11/01 14:30:00;;;;;;;6.30;3.45;;;;;;;;;;5028388;28;20101;-75
2022/11/01 14:32:31;;;;;;;7.65;2.83;;;;;;;;;;5012060;28;20665;-75
2022/11/01 14:34:58;;;;;;;7.63;2.95;;;;;;;;;;5011972;28;20037;-75